createdAt,value
2022-09-21T00:01:50.000Z,0.00
2022-09-21T00:06:45.000Z,0.00
2022-09-21T00:11:40.000Z,0.00
2022-09-21T00:16:34.000Z,0.00
2022-09-21T00:21:27.000Z,0.00
2022-09-21T00:26:21.000Z,0.00
2022-09-21T00:31:16.000Z,0.00
2022-09-21T00:36:09.000Z,0.00
2022-09-21T00:41:04.000Z,0.00
2022-09-21T00:45:58.000Z,0.00
2022-09-21T00:50:52.000Z,0.00
2022-09-21T00:55:47.000Z,0.00
2022-09-21T01:00:39.000Z,0.00
2022-09-21T01:05:34.000Z,0.00
2022-09-21T01:10:28.000Z,0.00
2022-09-21T01:15:22.000Z,0.00
2022-09-21T01:20:17.000Z,0.00
2022-09-21T01:25:11.000Z,0.00
2022-09-21T01:30:05.000Z,0.00
2022-09-21T01:34:59.000Z,0.00
2022-09-21T01:39:53.000Z,0.00
2022-09-21T01:44:48.000Z,0.00
2022-09-21T01:49:42.000Z,0.00
2022-09-21T01:54:37.000Z,0.00
2022-09-21T01:59:31.000Z,0.00
2022-09-21T02:04:29.000Z,0.00
2022-09-21T02:09:19.000Z,0.00
2022-09-21T02:14:14.000Z,0.00
2022-09-21T02:19:08.000Z,0.00
2022-09-21T02:24:02.000Z,0.00
2022-09-21T02:28:57.000Z,0.00
2022-09-21T02:33:51.000Z,0.00
2022-09-21T02:38:46.000Z,0.00
2022-09-21T02:43:40.000Z,0.00
2022-09-21T02:48:35.000Z,0.00
2022-09-21T02:53:29.000Z,0.00
2022-09-21T02:58:23.000Z,0.00
2022-09-21T03:03:17.000Z,0.00
2022-09-21T03:08:11.000Z,0.00
2022-09-21T03:13:05.000Z,0.00
2022-09-21T03:18:00.000Z,0.00
2022-09-21T03:22:54.000Z,0.00
2022-09-21T03:27:48.000Z,0.00
2022-09-21T03:32:40.000Z,0.00
2022-09-21T03:37:35.000Z,0.00
2022-09-21T03:42:29.000Z,0.00
2022-09-21T03:47:24.000Z,0.00
2022-09-21T03:52:18.000Z,0.00
2022-09-21T03:57:12.000Z,0.00
2022-09-21T04:02:07.000Z,0.00
2022-09-21T04:07:01.000Z,0.00
2022-09-21T04:11:55.000Z,0.00
2022-09-21T04:16:49.000Z,0.00
2022-09-21T04:21:44.000Z,0.00
2022-09-21T04:26:38.000Z,0.00
2022-09-21T04:31:33.000Z,0.00
2022-09-21T04:36:27.000Z,0.00
2022-09-21T04:41:21.000Z,0.00
2022-09-21T04:46:16.000Z,0.00
2022-09-21T05:00:53.000Z,3.33
2022-09-21T05:05:48.000Z,7.50
2022-09-21T05:20:23.000Z,40.83
2022-09-21T05:25:17.000Z,56.67
2022-09-21T05:39:55.000Z,112.50
2022-09-21T05:54:32.000Z,186.67
2022-09-21T05:59:27.000Z,222.50
2022-09-21T06:04:22.000Z,273.33
2022-09-21T06:09:16.000Z,295.83
2022-09-21T06:14:11.000Z,308.33
2022-09-21T06:19:06.000Z,344.17
2022-09-21T06:24:00.000Z,398.33
2022-09-21T06:28:54.000Z,426.67
2022-09-21T06:33:49.000Z,502.50
2022-09-21T06:38:43.000Z,529.17
2022-09-21T06:43:38.000Z,565.83
2022-09-21T06:48:32.000Z,640.00
2022-09-21T06:53:27.000Z,695.00
2022-09-21T06:58:21.000Z,727.50
2022-09-21T07:03:16.000Z,748.33
2022-09-21T07:08:11.000Z,775.00
2022-09-21T07:13:05.000Z,862.50
2022-09-21T07:18:00.000Z,845.00
2022-09-21T07:22:55.000Z,920.83
2022-09-21T07:27:49.000Z,960.00
2022-09-21T07:32:43.000Z,976.67
2022-09-21T07:37:38.000Z,1020.83
2022-09-21T07:42:33.000Z,1068.33
2022-09-21T07:47:28.000Z,1145.00
2022-09-21T07:52:22.000Z,1205.83
2022-09-21T07:57:20.000Z,1204.17
2022-09-21T08:02:11.000Z,1356.67
2022-09-21T08:07:06.000Z,1524.17
2022-09-21T08:12:01.000Z,1601.67
2022-09-21T08:16:56.000Z,1504.17
2022-09-21T08:21:50.000Z,1640.00
2022-09-21T08:26:45.000Z,1916.67
2022-09-21T08:31:40.000Z,1754.17
2022-09-21T08:36:34.000Z,1903.33
2022-09-21T08:41:29.000Z,1962.50
2022-09-21T08:46:24.000Z,1745.00
2022-09-21T08:51:18.000Z,1678.33
2022-09-21T08:56:12.000Z,2021.67
2022-09-21T09:01:07.000Z,1891.67
2022-09-21T09:06:02.000Z,2080.00
2022-09-21T09:10:56.000Z,1851.67
2022-09-21T09:15:51.000Z,2510.83
2022-09-21T09:20:46.000Z,2450.83
2022-09-21T09:25:41.000Z,2537.50
2022-09-21T09:30:35.000Z,2387.50
2022-09-21T09:35:30.000Z,5175.83
2022-09-21T09:40:22.000Z,6685.83
2022-09-21T09:45:18.000Z,6482.50
2022-09-21T09:50:12.000Z,7291.67
2022-09-21T09:55:08.000Z,6604.17
2022-09-21T10:00:04.000Z,6755.00
2022-09-21T10:04:59.000Z,6798.33
2022-09-21T10:09:55.000Z,7144.17
2022-09-21T10:14:50.000Z,7728.33
2022-09-21T10:19:47.000Z,7556.67
2022-09-21T10:24:39.000Z,7620.83
2022-09-21T10:29:34.000Z,7655.00
2022-09-21T10:34:28.000Z,5979.17
2022-09-21T10:39:23.000Z,7655.83
2022-09-21T10:44:18.000Z,3535.00
2022-09-21T10:49:12.000Z,7124.17
2022-09-21T10:54:07.000Z,8192.50
2022-09-21T10:59:02.000Z,5105.83
2022-09-21T11:03:57.000Z,2765.00
2022-09-21T11:08:50.000Z,2877.50
2022-09-21T11:13:43.000Z,9093.33
2022-09-21T11:18:39.000Z,5931.67
2022-09-21T11:23:35.000Z,9426.67
2022-09-21T11:28:29.000Z,9379.17
2022-09-21T11:33:23.000Z,1824.17
2022-09-21T11:38:17.000Z,9450.83
2022-09-21T11:43:11.000Z,9588.33
2022-09-21T11:48:07.000Z,9615.83
2022-09-21T11:53:02.000Z,9680.00
2022-09-21T11:57:57.000Z,9655.00
2022-09-21T12:02:53.000Z,9860.00
2022-09-21T12:07:48.000Z,9960.83
2022-09-21T12:12:43.000Z,10037.50
2022-09-21T12:17:37.000Z,10038.33
2022-09-21T12:22:31.000Z,10010.00
2022-09-21T12:27:26.000Z,10140.83
2022-09-21T12:32:21.000Z,10229.17
2022-09-21T12:37:16.000Z,10285.00
2022-09-21T12:42:11.000Z,10324.17
2022-09-21T12:47:06.000Z,10357.50
2022-09-21T12:52:01.000Z,10589.17
2022-09-21T12:56:58.000Z,10683.33
2022-09-21T13:01:49.000Z,10669.17
2022-09-21T13:06:41.000Z,10893.33
2022-09-21T13:11:36.000Z,10978.33
2022-09-21T13:16:31.000Z,10976.67
2022-09-21T13:21:25.000Z,11474.17
2022-09-21T13:26:19.000Z,4531.67
2022-09-21T13:31:12.000Z,11277.50
2022-09-21T13:36:06.000Z,11464.17
2022-09-21T13:41:01.000Z,10762.50
2022-09-21T13:45:54.000Z,1319.17
2022-09-21T13:50:47.000Z,1205.83
2022-09-21T13:55:40.000Z,1156.67
2022-09-21T14:00:33.000Z,1254.17
2022-09-21T14:05:27.000Z,5104.17
2022-09-21T14:10:22.000Z,11155.83
2022-09-21T14:15:18.000Z,11155.00
2022-09-21T14:20:15.000Z,11308.33
2022-09-21T14:25:11.000Z,11173.33
2022-09-21T14:30:06.000Z,11127.50
2022-09-21T14:35:01.000Z,11135.83
2022-09-21T14:39:56.000Z,11174.17
2022-09-21T14:44:51.000Z,11020.00
2022-09-21T14:49:48.000Z,10996.67
2022-09-21T14:54:40.000Z,10824.17
2022-09-21T14:59:35.000Z,10689.17
2022-09-21T15:04:29.000Z,10655.83
2022-09-21T15:09:24.000Z,10553.33
2022-09-21T15:14:18.000Z,10400.00
2022-09-21T15:19:13.000Z,10274.17
2022-09-21T15:24:07.000Z,10113.33
2022-09-21T15:29:02.000Z,9897.50
2022-09-21T15:33:57.000Z,9694.17
2022-09-21T15:38:51.000Z,9493.33
2022-09-21T15:43:44.000Z,9259.17
2022-09-21T15:48:38.000Z,8978.33
2022-09-21T15:53:33.000Z,8725.00
2022-09-21T15:58:28.000Z,8363.33
2022-09-21T16:03:22.000Z,8055.00
2022-09-21T16:08:16.000Z,7756.67
2022-09-21T16:13:10.000Z,7410.83
2022-09-21T16:18:05.000Z,7134.17
2022-09-21T16:22:59.000Z,6737.50
2022-09-21T16:27:54.000Z,6204.17
2022-09-21T16:32:48.000Z,5683.33
2022-09-21T16:37:42.000Z,5115.83
2022-09-21T16:42:36.000Z,4693.33
2022-09-21T16:47:29.000Z,4104.17
2022-09-21T16:52:24.000Z,3469.17
2022-09-21T16:57:15.000Z,2958.33
2022-09-21T17:02:10.000Z,1336.67
2022-09-21T17:07:04.000Z,365.83
2022-09-21T17:11:57.000Z,267.50
2022-09-21T17:16:50.000Z,195.00
2022-09-21T17:21:44.000Z,132.50
2022-09-21T17:26:38.000Z,88.33
2022-09-21T17:31:32.000Z,55.00
2022-09-21T17:36:27.000Z,34.17
2022-09-21T17:41:18.000Z,20.83
2022-09-21T17:46:13.000Z,10.00
2022-09-21T17:51:07.000Z,4.17
2022-09-21T17:56:02.000Z,0.83
2022-09-21T18:00:56.000Z,0.00
2022-09-21T18:05:53.000Z,0.00
2022-09-21T18:10:45.000Z,0.00
2022-09-21T18:15:39.000Z,0.00
2022-09-21T18:20:34.000Z,0.00
2022-09-21T18:25:28.000Z,0.00
2022-09-21T18:30:22.000Z,0.00
2022-09-21T18:35:16.000Z,0.00
2022-09-21T18:40:11.000Z,0.00
2022-09-21T18:45:05.000Z,0.00
2022-09-21T18:50:00.000Z,0.00
2022-09-21T18:54:54.000Z,0.00
2022-09-21T18:59:47.000Z,0.00
2022-09-21T19:04:42.000Z,0.00
2022-09-21T19:09:37.000Z,0.00
2022-09-21T19:14:31.000Z,0.00
2022-09-21T19:19:26.000Z,0.00
2022-09-21T19:24:20.000Z,0.00
2022-09-21T19:29:15.000Z,0.00
2022-09-21T19:34:09.000Z,0.00
2022-09-21T19:39:04.000Z,0.00
2022-09-21T19:43:59.000Z,0.00
2022-09-21T19:48:50.000Z,0.00
2022-09-21T19:53:45.000Z,0.00
2022-09-21T19:58:39.000Z,0.00
2022-09-21T20:03:33.000Z,0.00
2022-09-21T20:08:31.000Z,0.00
2022-09-21T20:13:22.000Z,0.00
2022-09-21T20:18:17.000Z,0.00
2022-09-21T20:23:12.000Z,0.00
2022-09-21T20:28:06.000Z,0.00
2022-09-21T20:33:01.000Z,0.00
2022-09-21T20:37:55.000Z,0.00
2022-09-21T20:42:49.000Z,0.00
2022-09-21T20:47:44.000Z,0.00
2022-09-21T20:52:39.000Z,0.00
2022-09-21T20:57:32.000Z,0.00
2022-09-21T21:02:27.000Z,0.00
2022-09-21T21:07:20.000Z,0.00
2022-09-21T21:12:15.000Z,0.00
2022-09-21T21:17:09.000Z,0.00
2022-09-21T21:22:04.000Z,0.00
2022-09-21T21:26:58.000Z,0.00
2022-09-21T21:31:50.000Z,0.00
2022-09-21T21:36:45.000Z,0.00
2022-09-21T21:41:39.000Z,0.00
2022-09-21T21:46:34.000Z,0.00
2022-09-21T21:51:29.000Z,0.00
2022-09-21T21:56:23.000Z,0.00
2022-09-21T22:01:18.000Z,0.00
2022-09-21T22:06:11.000Z,0.00
2022-09-21T22:11:06.000Z,0.00
2022-09-21T22:16:00.000Z,0.00
2022-09-21T22:20:55.000Z,0.00
2022-09-21T22:25:49.000Z,0.00
2022-09-21T22:30:44.000Z,0.00
2022-09-21T22:35:38.000Z,0.00
2022-09-21T22:40:33.000Z,0.00
2022-09-21T22:45:28.000Z,0.00
2022-09-21T22:50:22.000Z,0.00
2022-09-21T22:55:17.000Z,0.00
2022-09-21T23:00:11.000Z,0.00
2022-09-21T23:05:06.000Z,0.00
2022-09-21T23:10:00.000Z,0.00
2022-09-21T23:14:54.000Z,0.00
2022-09-21T23:19:48.000Z,0.00
2022-09-21T23:24:43.000Z,0.00
2022-09-21T23:29:38.000Z,0.00
2022-09-21T23:34:32.000Z,0.00
2022-09-21T23:39:27.000Z,0.00
2022-09-21T23:44:22.000Z,0.00
2022-09-21T23:49:16.000Z,0.00
2022-09-21T23:54:11.000Z,0.00
2022-09-21T23:59:06.000Z,0.00
